San Francisco, California
Traffic Map
Current Weather Conditions
San Francisco, California
Few Clouds
Few Clouds
19°
Feels Like: 19°
Wind Chill: 19° Ceiling: Unl
Heat Index: 19° Visibility: 10mi
Dew Point: 12° Wind: 10mph
Humidity: 63% Direction: 280° (W)
Pressure: 29.96in Gusts: 0mph
Raw Report DataKSFO 280656Z 28009KT 10SM FEW200 19/12 A2996 RMK AO2 SLP145 T01940122 $
Traffic Incident Summary
Active as of:
Severity:
Category:
InformationThere was an issue retrieving the traffic information for this location. Please try a different location or try again shortly.
Advertisements
Track Severe Weather on mobile